sensor_id;sensor_type;location;lat;lon;timestamp;P1;durP1;ratioP1;P2;durP2;ratioP2
33094;SDS011;19459;53.044;8.910;2023-08-30T00:00:18;8.80;;;5.55;;
33094;SDS011;19459;53.044;8.910;2023-08-30T00:02:47;8.55;;;6.15;;
33094;SDS011;19459;53.044;8.910;2023-08-30T00:05:15;8.20;;;6.47;;
33094;SDS011;19459;53.044;8.910;2023-08-30T00:07:41;7.20;;;5.85;;
33094;SDS011;19459;53.044;8.910;2023-08-30T00:10:07;15.13;;;6.65;;
33094;SDS011;19459;53.044;8.910;2023-08-30T00:12:35;8.77;;;7.05;;
33094;SDS011;19459;53.044;8.910;2023-08-30T00:15:01;8.35;;;7.00;;
33094;SDS011;19459;53.044;8.910;2023-08-30T00:17:27;10.80;;;7.25;;
33094;SDS011;19459;53.044;8.910;2023-08-30T00:19:52;11.52;;;7.53;;
33094;SDS011;19459;53.044;8.910;2023-08-30T00:22:20;8.13;;;7.25;;
33094;SDS011;19459;53.044;8.910;2023-08-30T00:24:47;14.48;;;7.85;;
33094;SDS011;19459;53.044;8.910;2023-08-30T00:27:13;11.75;;;8.60;;
33094;SDS011;19459;53.044;8.910;2023-08-30T00:29:38;10.27;;;8.35;;
33094;SDS011;19459;53.044;8.910;2023-08-30T00:32:04;10.55;;;8.02;;
33094;SDS011;19459;53.044;8.910;2023-08-30T00:34:30;11.88;;;8.60;;
33094;SDS011;19459;53.044;8.910;2023-08-30T00:36:56;11.50;;;8.45;;
33094;SDS011;19459;53.044;8.910;2023-08-30T00:39:21;11.75;;;9.15;;
33094;SDS011;19459;53.044;8.910;2023-08-30T00:41:47;10.88;;;7.85;;
33094;SDS011;19459;53.044;8.910;2023-08-30T00:44:13;12.65;;;9.88;;
33094;SDS011;19459;53.044;8.910;2023-08-30T00:46:40;11.40;;;9.90;;
33094;SDS011;19459;53.044;8.910;2023-08-30T00:49:06;13.93;;;9.48;;
33094;SDS011;19459;53.044;8.910;2023-08-30T00:51:32;14.65;;;10.73;;
33094;SDS011;19459;53.044;8.910;2023-08-30T00:53:59;13.13;;;11.65;;
33094;SDS011;19459;53.044;8.910;2023-08-30T00:56:25;12.18;;;10.18;;
33094;SDS011;19459;53.044;8.910;2023-08-30T00:58:53;12.65;;;10.90;;
33094;SDS011;19459;53.044;8.910;2023-08-30T01:01:19;14.60;;;10.15;;
33094;SDS011;19459;53.044;8.910;2023-08-30T01:03:46;15.13;;;10.88;;
33094;SDS011;19459;53.044;8.910;2023-08-30T01:06:11;16.45;;;12.05;;
33094;SDS011;19459;53.044;8.910;2023-08-30T01:08:38;12.88;;;11.50;;
33094;SDS011;19459;53.044;8.910;2023-08-30T01:11:22;15.32;;;12.07;;
33094;SDS011;19459;53.044;8.910;2023-08-30T01:14:29;14.63;;;11.38;;
33094;SDS011;19459;53.044;8.910;2023-08-30T01:17:04;14.52;;;12.50;;
33094;SDS011;19459;53.044;8.910;2023-08-30T01:28:28;14.30;;;12.10;;
33094;SDS011;19459;53.044;8.910;2023-08-30T01:30:57;27.00;;;13.88;;
33094;SDS011;19459;53.044;8.910;2023-08-30T01:33:25;11.95;;;10.55;;
33094;SDS011;19459;53.044;8.910;2023-08-30T01:35:53;14.27;;;12.50;;
33094;SDS011;19459;53.044;8.910;2023-08-30T01:38:27;15.07;;;12.98;;
33094;SDS011;19459;53.044;8.910;2023-08-30T01:40:55;14.45;;;12.73;;
33094;SDS011;19459;53.044;8.910;2023-08-30T01:43:24;18.70;;;14.63;;
33094;SDS011;19459;53.044;8.910;2023-08-30T01:45:53;14.60;;;12.35;;
33094;SDS011;19459;53.044;8.910;2023-08-30T01:48:25;19.02;;;13.43;;
33094;SDS011;19459;53.044;8.910;2023-08-30T01:50:52;16.30;;;13.40;;
33094;SDS011;19459;53.044;8.910;2023-08-30T01:53:23;16.35;;;12.90;;
33094;SDS011;19459;53.044;8.910;2023-08-30T01:55:50;17.38;;;13.93;;
33094;SDS011;19459;53.044;8.910;2023-08-30T01:58:16;15.27;;;12.43;;
33094;SDS011;19459;53.044;8.910;2023-08-30T02:00:41;17.05;;;12.88;;
33094;SDS011;19459;53.044;8.910;2023-08-30T02:03:10;14.82;;;12.50;;
33094;SDS011;19459;53.044;8.910;2023-08-30T02:05:39;16.98;;;13.05;;
33094;SDS011;19459;53.044;8.910;2023-08-30T02:08:50;18.13;;;12.55;;
33094;SDS011;19459;53.044;8.910;2023-08-30T02:11:23;15.98;;;13.20;;
33094;SDS011;19459;53.044;8.910;2023-08-30T02:13:53;20.92;;;14.77;;
33094;SDS011;19459;53.044;8.910;2023-08-30T02:16:22;23.35;;;16.27;;
33094;SDS011;19459;53.044;8.910;2023-08-30T02:18:50;19.20;;;13.60;;
33094;SDS011;19459;53.044;8.910;2023-08-30T02:21:17;17.58;;;14.23;;
33094;SDS011;19459;53.044;8.910;2023-08-30T02:23:43;16.42;;;14.00;;
33094;SDS011;19459;53.044;8.910;2023-08-30T02:26:09;20.92;;;15.18;;
33094;SDS011;19459;53.044;8.910;2023-08-30T02:28:35;20.17;;;14.52;;
33094;SDS011;19459;53.044;8.910;2023-08-30T02:31:02;17.63;;;14.70;;
33094;SDS011;19459;53.044;8.910;2023-08-30T02:33:28;18.52;;;15.40;;
33094;SDS011;19459;53.044;8.910;2023-08-30T02:35:54;21.00;;;14.65;;
33094;SDS011;19459;53.044;8.910;2023-08-30T02:38:20;20.17;;;14.57;;
33094;SDS011;19459;53.044;8.910;2023-08-30T02:40:46;17.10;;;13.70;;
33094;SDS011;19459;53.044;8.910;2023-08-30T02:43:11;16.23;;;12.60;;
33094;SDS011;19459;53.044;8.910;2023-08-30T02:45:37;16.75;;;14.63;;
33094;SDS011;19459;53.044;8.910;2023-08-30T02:48:03;17.55;;;13.32;;
33094;SDS011;19459;53.044;8.910;2023-08-30T02:50:30;17.45;;;13.63;;
33094;SDS011;19459;53.044;8.910;2023-08-30T02:52:55;18.63;;;12.98;;
33094;SDS011;19459;53.044;8.910;2023-08-30T02:55:21;17.75;;;13.80;;
33094;SDS011;19459;53.044;8.910;2023-08-30T02:57:47;18.05;;;13.45;;
33094;SDS011;19459;53.044;8.910;2023-08-30T03:00:13;18.58;;;14.70;;
33094;SDS011;19459;53.044;8.910;2023-08-30T03:02:40;16.77;;;13.75;;
33094;SDS011;19459;53.044;8.910;2023-08-30T03:05:05;19.17;;;14.80;;
33094;SDS011;19459;53.044;8.910;2023-08-30T03:07:31;19.02;;;14.80;;
33094;SDS011;19459;53.044;8.910;2023-08-30T03:09:57;16.25;;;13.75;;
33094;SDS011;19459;53.044;8.910;2023-08-30T03:12:23;17.95;;;14.32;;
33094;SDS011;19459;53.044;8.910;2023-08-30T03:14:49;15.27;;;13.57;;
33094;SDS011;19459;53.044;8.910;2023-08-30T03:17:15;15.90;;;12.23;;
33094;SDS011;19459;53.044;8.910;2023-08-30T03:19:41;16.10;;;13.18;;
33094;SDS011;19459;53.044;8.910;2023-08-30T03:22:07;15.38;;;13.27;;
33094;SDS011;19459;53.044;8.910;2023-08-30T03:24:33;18.38;;;13.00;;
33094;SDS011;19459;53.044;8.910;2023-08-30T03:26:58;17.13;;;12.57;;
33094;SDS011;19459;53.044;8.910;2023-08-30T03:29:24;15.05;;;13.45;;
33094;SDS011;19459;53.044;8.910;2023-08-30T03:31:50;18.15;;;12.60;;
33094;SDS011;19459;53.044;8.910;2023-08-30T03:34:16;17.48;;;14.43;;
33094;SDS011;19459;53.044;8.910;2023-08-30T03:36:42;17.25;;;13.77;;
33094;SDS011;19459;53.044;8.910;2023-08-30T03:39:15;17.95;;;13.38;;
33094;SDS011;19459;53.044;8.910;2023-08-30T03:41:41;15.95;;;13.55;;
33094;SDS011;19459;53.044;8.910;2023-08-30T03:44:07;15.32;;;13.40;;
33094;SDS011;19459;53.044;8.910;2023-08-30T03:46:32;16.13;;;12.73;;
33094;SDS011;19459;53.044;8.910;2023-08-30T03:48:58;17.52;;;12.52;;
33094;SDS011;19459;53.044;8.910;2023-08-30T03:51:24;15.55;;;13.07;;
33094;SDS011;19459;53.044;8.910;2023-08-30T03:53:50;19.83;;;13.90;;
33094;SDS011;19459;53.044;8.910;2023-08-30T03:56:16;16.85;;;13.38;;
33094;SDS011;19459;53.044;8.910;2023-08-30T03:58:41;16.60;;;13.80;;
33094;SDS011;19459;53.044;8.910;2023-08-30T04:01:07;16.38;;;13.10;;
33094;SDS011;19459;53.044;8.910;2023-08-30T04:03:33;16.42;;;13.82;;
33094;SDS011;19459;53.044;8.910;2023-08-30T04:05:59;21.40;;;16.08;;
33094;SDS011;19459;53.044;8.910;2023-08-30T04:08:24;18.25;;;14.27;;
33094;SDS011;19459;53.044;8.910;2023-08-30T04:10:52;18.80;;;15.13;;
33094;SDS011;19459;53.044;8.910;2023-08-30T04:13:18;18.42;;;15.20;;
33094;SDS011;19459;53.044;8.910;2023-08-30T04:15:44;20.98;;;15.02;;
33094;SDS011;19459;53.044;8.910;2023-08-30T04:18:09;20.48;;;15.82;;
33094;SDS011;19459;53.044;8.910;2023-08-30T04:20:35;21.75;;;14.98;;
33094;SDS011;19459;53.044;8.910;2023-08-30T04:23:01;22.88;;;15.90;;
33094;SDS011;19459;53.044;8.910;2023-08-30T04:25:28;22.75;;;15.93;;
33094;SDS011;19459;53.044;8.910;2023-08-30T04:27:55;23.42;;;16.27;;
33094;SDS011;19459;53.044;8.910;2023-08-30T04:30:21;18.85;;;14.82;;
33094;SDS011;19459;53.044;8.910;2023-08-30T04:32:47;19.02;;;13.75;;
33094;SDS011;19459;53.044;8.910;2023-08-30T04:35:13;19.60;;;15.63;;
33094;SDS011;19459;53.044;8.910;2023-08-30T04:37:39;23.83;;;18.17;;
33094;SDS011;19459;53.044;8.910;2023-08-30T04:40:06;21.40;;;17.17;;
33094;SDS011;19459;53.044;8.910;2023-08-30T04:42:35;25.25;;;18.60;;
33094;SDS011;19459;53.044;8.910;2023-08-30T04:45:02;24.05;;;18.77;;
33094;SDS011;19459;53.044;8.910;2023-08-30T04:47:29;25.85;;;20.77;;
33094;SDS011;19459;53.044;8.910;2023-08-30T04:49:56;25.45;;;20.50;;
33094;SDS011;19459;53.044;8.910;2023-08-30T04:52:22;29.58;;;22.15;;
33094;SDS011;19459;53.044;8.910;2023-08-30T04:54:48;29.55;;;22.20;;
33094;SDS011;19459;53.044;8.910;2023-08-30T04:57:14;26.40;;;21.42;;
33094;SDS011;19459;53.044;8.910;2023-08-30T04:59:41;28.17;;;22.67;;
33094;SDS011;19459;53.044;8.910;2023-08-30T05:02:11;30.02;;;22.45;;
33094;SDS011;19459;53.044;8.910;2023-08-30T05:04:37;28.77;;;23.60;;
33094;SDS011;19459;53.044;8.910;2023-08-30T05:07:03;32.72;;;23.80;;
33094;SDS011;19459;53.044;8.910;2023-08-30T05:09:30;30.20;;;22.15;;
33094;SDS011;19459;53.044;8.910;2023-08-30T05:11:57;26.65;;;21.98;;
33094;SDS011;19459;53.044;8.910;2023-08-30T05:14:23;30.17;;;23.45;;
33094;SDS011;19459;53.044;8.910;2023-08-30T05:16:49;28.45;;;22.90;;
33094;SDS011;19459;53.044;8.910;2023-08-30T05:19:15;33.53;;;23.85;;
33094;SDS011;19459;53.044;8.910;2023-08-30T05:21:44;31.52;;;23.33;;
33094;SDS011;19459;53.044;8.910;2023-08-30T05:24:10;29.38;;;22.35;;
33094;SDS011;19459;53.044;8.910;2023-08-30T05:26:36;31.45;;;24.00;;
33094;SDS011;19459;53.044;8.910;2023-08-30T05:29:02;29.88;;;23.42;;
33094;SDS011;19459;53.044;8.910;2023-08-30T05:31:28;31.42;;;23.60;;
33094;SDS011;19459;53.044;8.910;2023-08-30T05:33:54;31.33;;;24.42;;
33094;SDS011;19459;53.044;8.910;2023-08-30T05:36:20;31.98;;;22.77;;
33094;SDS011;19459;53.044;8.910;2023-08-30T05:38:46;29.30;;;23.50;;
33094;SDS011;19459;53.044;8.910;2023-08-30T05:41:12;32.20;;;22.58;;
33094;SDS011;19459;53.044;8.910;2023-08-30T05:43:37;27.52;;;23.73;;
33094;SDS011;19459;53.044;8.910;2023-08-30T05:46:03;30.98;;;24.63;;
33094;SDS011;19459;53.044;8.910;2023-08-30T05:48:29;34.25;;;24.95;;
33094;SDS011;19459;53.044;8.910;2023-08-30T05:50:55;28.50;;;24.17;;
33094;SDS011;19459;53.044;8.910;2023-08-30T05:53:22;36.65;;;24.23;;
33094;SDS011;19459;53.044;8.910;2023-08-30T05:55:48;30.67;;;24.45;;
33094;SDS011;19459;53.044;8.910;2023-08-30T05:58:14;32.80;;;24.65;;
33094;SDS011;19459;53.044;8.910;2023-08-30T06:00:40;30.75;;;24.35;;
33094;SDS011;19459;53.044;8.910;2023-08-30T06:03:06;35.42;;;25.73;;
33094;SDS011;19459;53.044;8.910;2023-08-30T06:05:35;30.58;;;24.45;;
33094;SDS011;19459;53.044;8.910;2023-08-30T06:08:01;34.30;;;26.38;;
33094;SDS011;19459;53.044;8.910;2023-08-30T06:10:27;34.33;;;25.88;;
33094;SDS011;19459;53.044;8.910;2023-08-30T06:12:53;32.67;;;25.73;;
33094;SDS011;19459;53.044;8.910;2023-08-30T06:15:19;29.05;;;23.00;;
33094;SDS011;19459;53.044;8.910;2023-08-30T06:17:45;33.92;;;26.50;;
33094;SDS011;19459;53.044;8.910;2023-08-30T06:20:11;30.02;;;24.65;;
33094;SDS011;19459;53.044;8.910;2023-08-30T06:22:37;32.22;;;26.48;;
33094;SDS011;19459;53.044;8.910;2023-08-30T06:25:04;32.15;;;26.30;;
33094;SDS011;19459;53.044;8.910;2023-08-30T06:27:31;31.13;;;25.02;;
33094;SDS011;19459;53.044;8.910;2023-08-30T06:29:57;35.65;;;26.90;;
33094;SDS011;19459;53.044;8.910;2023-08-30T06:32:23;31.15;;;26.15;;
33094;SDS011;19459;53.044;8.910;2023-08-30T06:34:49;36.70;;;26.10;;
33094;SDS011;19459;53.044;8.910;2023-08-30T06:37:32;36.20;;;26.80;;
33094;SDS011;19459;53.044;8.910;2023-08-30T06:39:59;32.47;;;26.20;;
33094;SDS011;19459;53.044;8.910;2023-08-30T06:42:24;31.63;;;24.67;;
33094;SDS011;19459;53.044;8.910;2023-08-30T06:44:50;33.72;;;24.85;;
33094;SDS011;19459;53.044;8.910;2023-08-30T06:47:16;33.88;;;25.75;;
33094;SDS011;19459;53.044;8.910;2023-08-30T06:49:42;31.77;;;24.45;;
33094;SDS011;19459;53.044;8.910;2023-08-30T06:52:07;36.63;;;25.27;;
33094;SDS011;19459;53.044;8.910;2023-08-30T06:54:34;32.58;;;25.00;;
33094;SDS011;19459;53.044;8.910;2023-08-30T06:57:01;31.55;;;24.45;;
33094;SDS011;19459;53.044;8.910;2023-08-30T06:59:27;28.42;;;23.60;;
33094;SDS011;19459;53.044;8.910;2023-08-30T07:01:53;32.33;;;24.50;;
33094;SDS011;19459;53.044;8.910;2023-08-30T07:04:19;28.90;;;23.20;;
33094;SDS011;19459;53.044;8.910;2023-08-30T07:06:45;31.08;;;23.52;;
33094;SDS011;19459;53.044;8.910;2023-08-30T07:09:11;32.15;;;23.45;;
33094;SDS011;19459;53.044;8.910;2023-08-30T07:11:41;37.65;;;24.70;;
33094;SDS011;19459;53.044;8.910;2023-08-30T07:14:12;37.63;;;24.17;;
33094;SDS011;19459;53.044;8.910;2023-08-30T07:16:39;31.02;;;23.73;;
33094;SDS011;19459;53.044;8.910;2023-08-30T07:19:05;30.25;;;24.20;;
33094;SDS011;19459;53.044;8.910;2023-08-30T07:21:31;35.72;;;23.33;;
33094;SDS011;19459;53.044;8.910;2023-08-30T07:23:59;30.08;;;21.75;;
33094;SDS011;19459;53.044;8.910;2023-08-30T07:26:25;28.25;;;20.45;;
33094;SDS011;19459;53.044;8.910;2023-08-30T07:28:51;25.52;;;20.73;;
33094;SDS011;19459;53.044;8.910;2023-08-30T07:31:16;24.08;;;19.73;;
33094;SDS011;19459;53.044;8.910;2023-08-30T07:33:43;25.67;;;19.85;;
33094;SDS011;19459;53.044;8.910;2023-08-30T07:36:10;27.08;;;20.50;;
33094;SDS011;19459;53.044;8.910;2023-08-30T07:38:36;29.42;;;19.92;;
33094;SDS011;19459;53.044;8.910;2023-08-30T07:41:02;24.15;;;18.95;;
33094;SDS011;19459;53.044;8.910;2023-08-30T07:43:28;26.17;;;19.50;;
33094;SDS011;19459;53.044;8.910;2023-08-30T07:45:54;29.00;;;19.05;;
33094;SDS011;19459;53.044;8.910;2023-08-30T07:48:21;27.60;;;19.55;;
33094;SDS011;19459;53.044;8.910;2023-08-30T07:50:47;22.35;;;17.73;;
33094;SDS011;19459;53.044;8.910;2023-08-30T07:53:13;22.10;;;16.52;;
33094;SDS011;19459;53.044;8.910;2023-08-30T07:55:38;19.65;;;16.00;;
33094;SDS011;19459;53.044;8.910;2023-08-30T07:58:05;22.98;;;16.23;;
33094;SDS011;19459;53.044;8.910;2023-08-30T08:00:33;22.85;;;16.88;;
33094;SDS011;19459;53.044;8.910;2023-08-30T08:03:00;20.90;;;15.18;;
33094;SDS011;19459;53.044;8.910;2023-08-30T08:05:27;27.00;;;16.33;;
33094;SDS011;19459;53.044;8.910;2023-08-30T08:07:53;23.42;;;16.52;;
33094;SDS011;19459;53.044;8.910;2023-08-30T08:10:19;21.95;;;14.85;;
33094;SDS011;19459;53.044;8.910;2023-08-30T08:12:45;21.23;;;14.73;;
33094;SDS011;19459;53.044;8.910;2023-08-30T08:15:11;15.93;;;13.50;;
33094;SDS011;19459;53.044;8.910;2023-08-30T08:17:36;20.73;;;13.23;;
33094;SDS011;19459;53.044;8.910;2023-08-30T08:20:05;17.50;;;13.65;;
33094;SDS011;19459;53.044;8.910;2023-08-30T08:22:32;17.05;;;12.10;;
33094;SDS011;19459;53.044;8.910;2023-08-30T08:24:57;17.55;;;11.68;;
33094;SDS011;19459;53.044;8.910;2023-08-30T08:27:26;15.48;;;12.10;;
33094;SDS011;19459;53.044;8.910;2023-08-30T08:29:52;16.58;;;10.82;;
33094;SDS011;19459;53.044;8.910;2023-08-30T08:32:18;18.13;;;11.88;;
33094;SDS011;19459;53.044;8.910;2023-08-30T08:34:43;15.23;;;10.45;;
33094;SDS011;19459;53.044;8.910;2023-08-30T08:37:09;16.50;;;11.07;;
33094;SDS011;19459;53.044;8.910;2023-08-30T08:39:35;13.70;;;10.77;;
33094;SDS011;19459;53.044;8.910;2023-08-30T08:42:01;14.80;;;10.07;;
33094;SDS011;19459;53.044;8.910;2023-08-30T08:44:28;14.80;;;9.35;;
33094;SDS011;19459;53.044;8.910;2023-08-30T08:46:57;12.88;;;9.35;;
33094;SDS011;19459;53.044;8.910;2023-08-30T08:49:25;12.77;;;9.82;;
33094;SDS011;19459;53.044;8.910;2023-08-30T08:51:59;12.15;;;7.85;;
33094;SDS011;19459;53.044;8.910;2023-08-30T08:54:52;10.68;;;8.40;;
33094;SDS011;19459;53.044;8.910;2023-08-30T08:57:19;11.38;;;8.75;;
33094;SDS011;19459;53.044;8.910;2023-08-30T08:59:46;12.55;;;9.05;;
33094;SDS011;19459;53.044;8.910;2023-08-30T09:02:13;11.57;;;8.98;;
33094;SDS011;19459;53.044;8.910;2023-08-30T09:04:39;13.07;;;8.52;;
33094;SDS011;19459;53.044;8.910;2023-08-30T09:07:06;12.85;;;8.45;;
33094;SDS011;19459;53.044;8.910;2023-08-30T09:09:32;13.85;;;9.52;;
33094;SDS011;19459;53.044;8.910;2023-08-30T09:11:59;12.70;;;8.05;;
33094;SDS011;19459;53.044;8.910;2023-08-30T09:14:25;14.63;;;8.88;;
33094;SDS011;19459;53.044;8.910;2023-08-30T09:16:58;14.52;;;9.30;;
33094;SDS011;19459;53.044;8.910;2023-08-30T09:19:26;13.70;;;9.07;;
33094;SDS011;19459;53.044;8.910;2023-08-30T09:21:55;15.60;;;9.52;;
33094;SDS011;19459;53.044;8.910;2023-08-30T09:24:24;17.35;;;9.23;;
33094;SDS011;19459;53.044;8.910;2023-08-30T09:26:52;14.23;;;8.98;;
33094;SDS011;19459;53.044;8.910;2023-08-30T09:29:20;12.32;;;8.40;;
33094;SDS011;19459;53.044;8.910;2023-08-30T09:31:50;13.95;;;8.95;;
33094;SDS011;19459;53.044;8.910;2023-08-30T09:34:21;13.63;;;8.15;;
33094;SDS011;19459;53.044;8.910;2023-08-30T09:36:51;12.00;;;7.65;;
33094;SDS011;19459;53.044;8.910;2023-08-30T09:39:18;13.02;;;8.48;;
33094;SDS011;19459;53.044;8.910;2023-08-30T09:41:48;13.70;;;8.20;;
33094;SDS011;19459;53.044;8.910;2023-08-30T09:44:16;15.32;;;9.60;;
33094;SDS011;19459;53.044;8.910;2023-08-30T09:46:49;17.08;;;10.60;;
33094;SDS011;19459;53.044;8.910;2023-08-30T09:49:23;19.77;;;12.75;;
33094;SDS011;19459;53.044;8.910;2023-08-30T09:51:51;17.25;;;11.30;;
33094;SDS011;19459;53.044;8.910;2023-08-30T09:54:19;17.75;;;11.75;;
33094;SDS011;19459;53.044;8.910;2023-08-30T09:56:50;19.40;;;12.93;;
33094;SDS011;19459;53.044;8.910;2023-08-30T09:59:20;19.75;;;13.75;;
33094;SDS011;19459;53.044;8.910;2023-08-30T10:01:47;22.42;;;13.77;;
33094;SDS011;19459;53.044;8.910;2023-08-30T10:04:13;21.50;;;13.55;;
33094;SDS011;19459;53.044;8.910;2023-08-30T10:06:40;31.33;;;13.15;;
33094;SDS011;19459;53.044;8.910;2023-08-30T10:09:08;23.50;;;14.63;;
33094;SDS011;19459;53.044;8.910;2023-08-30T10:11:38;23.10;;;14.05;;
33094;SDS011;19459;53.044;8.910;2023-08-30T10:14:04;23.55;;;13.95;;
33094;SDS011;19459;53.044;8.910;2023-08-30T10:16:35;21.27;;;13.95;;
33094;SDS011;19459;53.044;8.910;2023-08-30T10:19:08;19.25;;;13.55;;
33094;SDS011;19459;53.044;8.910;2023-08-30T10:21:47;28.27;;;13.35;;
33094;SDS011;19459;53.044;8.910;2023-08-30T10:24:21;25.38;;;14.13;;
33094;SDS011;19459;53.044;8.910;2023-08-30T10:26:49;27.85;;;15.30;;
33094;SDS011;19459;53.044;8.910;2023-08-30T10:29:15;23.13;;;14.30;;
33094;SDS011;19459;53.044;8.910;2023-08-30T10:31:42;24.23;;;14.35;;
33094;SDS011;19459;53.044;8.910;2023-08-30T10:34:15;18.20;;;11.73;;
33094;SDS011;19459;53.044;8.910;2023-08-30T10:36:45;21.23;;;12.52;;
33094;SDS011;19459;53.044;8.910;2023-08-30T10:39:27;19.20;;;11.10;;
33094;SDS011;19459;53.044;8.910;2023-08-30T10:42:07;17.98;;;12.35;;
33094;SDS011;19459;53.044;8.910;2023-08-30T10:44:50;17.25;;;11.85;;
33094;SDS011;19459;53.044;8.910;2023-08-30T10:47:22;17.95;;;11.00;;
33094;SDS011;19459;53.044;8.910;2023-08-30T10:49:56;16.77;;;11.80;;
33094;SDS011;19459;53.044;8.910;2023-08-30T10:52:24;18.25;;;12.25;;
33094;SDS011;19459;53.044;8.910;2023-08-30T10:54:51;18.58;;;11.48;;
33094;SDS011;19459;53.044;8.910;2023-08-30T10:57:20;17.83;;;12.18;;
33094;SDS011;19459;53.044;8.910;2023-08-30T11:02:47;19.25;;;11.68;;
33094;SDS011;19459;53.044;8.910;2023-08-30T11:05:15;19.88;;;10.55;;
33094;SDS011;19459;53.044;8.910;2023-08-30T11:07:42;18.08;;;10.98;;
33094;SDS011;19459;53.044;8.910;2023-08-30T11:10:09;13.57;;;9.38;;
33094;SDS011;19459;53.044;8.910;2023-08-30T11:12:35;13.23;;;9.90;;
33094;SDS011;19459;53.044;8.910;2023-08-30T11:15:01;19.60;;;10.52;;
33094;SDS011;19459;53.044;8.910;2023-08-30T11:17:28;16.85;;;10.73;;
33094;SDS011;19459;53.044;8.910;2023-08-30T11:19:58;14.23;;;10.77;;
33094;SDS011;19459;53.044;8.910;2023-08-30T11:22:42;16.63;;;10.23;;
33094;SDS011;19459;53.044;8.910;2023-08-30T11:25:10;18.48;;;10.88;;
33094;SDS011;19459;53.044;8.910;2023-08-30T11:27:38;16.80;;;11.45;;
33094;SDS011;19459;53.044;8.910;2023-08-30T11:30:04;17.52;;;11.32;;
33094;SDS011;19459;53.044;8.910;2023-08-30T11:32:35;17.02;;;11.75;;
33094;SDS011;19459;53.044;8.910;2023-08-30T11:35:02;15.70;;;12.00;;
33094;SDS011;19459;53.044;8.910;2023-08-30T11:37:29;15.88;;;10.95;;
33094;SDS011;19459;53.044;8.910;2023-08-30T11:39:55;17.48;;;10.77;;
33094;SDS011;19459;53.044;8.910;2023-08-30T11:42:21;16.73;;;11.70;;
33094;SDS011;19459;53.044;8.910;2023-08-30T11:44:47;20.95;;;12.82;;
33094;SDS011;19459;53.044;8.910;2023-08-30T11:47:24;16.67;;;12.07;;
33094;SDS011;19459;53.044;8.910;2023-08-30T11:49:57;16.20;;;11.30;;
33094;SDS011;19459;53.044;8.910;2023-08-30T11:52:24;16.40;;;10.90;;
33094;SDS011;19459;53.044;8.910;2023-08-30T11:54:51;17.63;;;11.23;;
33094;SDS011;19459;53.044;8.910;2023-08-30T11:57:18;14.80;;;10.00;;
33094;SDS011;19459;53.044;8.910;2023-08-30T11:59:45;14.85;;;10.95;;
33094;SDS011;19459;53.044;8.910;2023-08-30T12:02:13;16.42;;;10.15;;
33094;SDS011;19459;53.044;8.910;2023-08-30T12:04:42;14.57;;;9.23;;
33094;SDS011;19459;53.044;8.910;2023-08-30T12:07:25;11.93;;;7.85;;
33094;SDS011;19459;53.044;8.910;2023-08-30T12:09:51;12.30;;;7.70;;
33094;SDS011;19459;53.044;8.910;2023-08-30T12:12:18;18.73;;;7.95;;
33094;SDS011;19459;53.044;8.910;2023-08-30T12:14:44;10.63;;;7.05;;
33094;SDS011;19459;53.044;8.910;2023-08-30T12:17:10;15.02;;;8.40;;
33094;SDS011;19459;53.044;8.910;2023-08-30T12:19:37;13.73;;;8.48;;
33094;SDS011;19459;53.044;8.910;2023-08-30T12:22:05;10.85;;;7.93;;
33094;SDS011;19459;53.044;8.910;2023-08-30T12:24:44;16.63;;;8.82;;
33094;SDS011;19459;53.044;8.910;2023-08-30T12:27:11;14.80;;;8.00;;
33094;SDS011;19459;53.044;8.910;2023-08-30T12:29:39;18.95;;;7.85;;
33094;SDS011;19459;53.044;8.910;2023-08-30T12:32:05;11.77;;;8.27;;
33094;SDS011;19459;53.044;8.910;2023-08-30T12:34:32;10.50;;;8.00;;
33094;SDS011;19459;53.044;8.910;2023-08-30T12:36:59;13.77;;;7.75;;
33094;SDS011;19459;53.044;8.910;2023-08-30T12:39:25;12.02;;;7.75;;
33094;SDS011;19459;53.044;8.910;2023-08-30T12:41:51;12.27;;;7.78;;
33094;SDS011;19459;53.044;8.910;2023-08-30T12:44:16;13.40;;;8.15;;
33094;SDS011;19459;53.044;8.910;2023-08-30T12:46:45;12.52;;;8.20;;
33094;SDS011;19459;53.044;8.910;2023-08-30T12:49:10;10.50;;;7.57;;
33094;SDS011;19459;53.044;8.910;2023-08-30T12:51:36;11.77;;;8.02;;
33094;SDS011;19459;53.044;8.910;2023-08-30T12:54:02;11.07;;;7.43;;
33094;SDS011;19459;53.044;8.910;2023-08-30T12:56:29;13.55;;;8.10;;
33094;SDS011;19459;53.044;8.910;2023-08-30T12:58:55;18.00;;;7.47;;
33094;SDS011;19459;53.044;8.910;2023-08-30T13:01:21;11.95;;;7.45;;
33094;SDS011;19459;53.044;8.910;2023-08-30T13:03:47;14.60;;;7.60;;
33094;SDS011;19459;53.044;8.910;2023-08-30T13:06:13;10.90;;;8.18;;
33094;SDS011;19459;53.044;8.910;2023-08-30T13:08:39;10.90;;;6.80;;
33094;SDS011;19459;53.044;8.910;2023-08-30T13:11:04;9.15;;;5.97;;
33094;SDS011;19459;53.044;8.910;2023-08-30T13:13:30;10.82;;;6.95;;
33094;SDS011;19459;53.044;8.910;2023-08-30T13:15:56;12.65;;;7.30;;
33094;SDS011;19459;53.044;8.910;2023-08-30T13:18:22;14.40;;;7.57;;
33094;SDS011;19459;53.044;8.910;2023-08-30T13:20:47;18.55;;;7.28;;
33094;SDS011;19459;53.044;8.910;2023-08-30T13:23:13;10.77;;;6.85;;
33094;SDS011;19459;53.044;8.910;2023-08-30T13:25:39;11.15;;;8.15;;
33094;SDS011;19459;53.044;8.910;2023-08-30T13:28:06;10.45;;;7.57;;
33094;SDS011;19459;53.044;8.910;2023-08-30T13:30:32;12.73;;;8.00;;
33094;SDS011;19459;53.044;8.910;2023-08-30T13:32:59;12.10;;;7.88;;
33094;SDS011;19459;53.044;8.910;2023-08-30T13:35:24;13.43;;;7.15;;
33094;SDS011;19459;53.044;8.910;2023-08-30T13:37:50;11.77;;;7.68;;
33094;SDS011;19459;53.044;8.910;2023-08-30T13:40:16;10.35;;;7.82;;
33094;SDS011;19459;53.044;8.910;2023-08-30T13:42:42;10.55;;;7.38;;
33094;SDS011;19459;53.044;8.910;2023-08-30T13:45:08;11.45;;;8.55;;
33094;SDS011;19459;53.044;8.910;2023-08-30T13:47:38;19.67;;;8.82;;
33094;SDS011;19459;53.044;8.910;2023-08-30T13:50:04;12.50;;;8.23;;
33094;SDS011;19459;53.044;8.910;2023-08-30T13:52:30;12.35;;;8.63;;
33094;SDS011;19459;53.044;8.910;2023-08-30T13:54:58;13.80;;;8.82;;
33094;SDS011;19459;53.044;8.910;2023-08-30T13:57:23;14.98;;;9.27;;
33094;SDS011;19459;53.044;8.910;2023-08-30T13:59:49;17.52;;;8.90;;
33094;SDS011;19459;53.044;8.910;2023-08-30T14:02:15;13.02;;;9.05;;
33094;SDS011;19459;53.044;8.910;2023-08-30T14:04:41;19.45;;;12.27;;
33094;SDS011;19459;53.044;8.910;2023-08-30T14:07:07;18.55;;;11.57;;
33094;SDS011;19459;53.044;8.910;2023-08-30T14:09:32;20.13;;;13.15;;
33094;SDS011;19459;53.044;8.910;2023-08-30T14:11:58;18.67;;;12.30;;
33094;SDS011;19459;53.044;8.910;2023-08-30T14:14:24;23.20;;;13.50;;
33094;SDS011;19459;53.044;8.910;2023-08-30T14:16:50;20.83;;;13.32;;
33094;SDS011;19459;53.044;8.910;2023-08-30T14:19:15;17.92;;;12.20;;
33094;SDS011;19459;53.044;8.910;2023-08-30T14:21:42;17.63;;;13.82;;
33094;SDS011;19459;53.044;8.910;2023-08-30T14:24:08;19.95;;;14.63;;
33094;SDS011;19459;53.044;8.910;2023-08-30T14:26:34;21.83;;;15.27;;
33094;SDS011;19459;53.044;8.910;2023-08-30T14:28:59;22.67;;;15.32;;
33094;SDS011;19459;53.044;8.910;2023-08-30T14:31:25;22.50;;;16.35;;
33094;SDS011;19459;53.044;8.910;2023-08-30T14:33:53;23.75;;;16.65;;
33094;SDS011;19459;53.044;8.910;2023-08-30T14:36:23;23.33;;;16.75;;
33094;SDS011;19459;53.044;8.910;2023-08-30T14:38:49;27.83;;;18.92;;